sensor_id;sensor_type;location;lat;lon;timestamp;temperature;humidity
13944;DHT22;7044;53.286;8.534;2022-11-06T00:01:41;10.00;99.90
13944;DHT22;7044;53.286;8.534;2022-11-06T00:04:08;10.00;99.90
13944;DHT22;7044;53.286;8.534;2022-11-06T00:06:35;10.00;99.90
13944;DHT22;7044;53.286;8.534;2022-11-06T00:09:15;10.00;99.90
13944;DHT22;7044;53.286;8.534;2022-11-06T00:11:42;10.00;99.90
13944;DHT22;7044;53.286;8.534;2022-11-06T00:14:10;10.00;99.90
13944;DHT22;7044;53.286;8.534;2022-11-06T00:16:39;10.00;99.90
13944;DHT22;7044;53.286;8.534;2022-11-06T00:19:06;10.00;99.90
13944;DHT22;7044;53.286;8.534;2022-11-06T00:21:34;10.00;99.90
13944;DHT22;7044;53.286;8.534;2022-11-06T00:24:03;10.00;99.90
13944;DHT22;7044;53.286;8.534;2022-11-06T00:26:31;10.10;99.90
13944;DHT22;7044;53.286;8.534;2022-11-06T00:28:59;10.00;99.90
13944;DHT22;7044;53.286;8.534;2022-11-06T00:31:29;10.10;99.90
13944;DHT22;7044;53.286;8.534;2022-11-06T00:33:58;10.10;99.90
13944;DHT22;7044;53.286;8.534;2022-11-06T00:36:27;10.00;99.90
13944;DHT22;7044;53.286;8.534;2022-11-06T00:38:55;10.10;99.90
13944;DHT22;7044;53.286;8.534;2022-11-06T00:41:23;10.10;99.90
13944;DHT22;7044;53.286;8.534;2022-11-06T00:43:53;10.10;99.90
13944;DHT22;7044;53.286;8.534;2022-11-06T00:46:21;10.00;99.90
13944;DHT22;7044;53.286;8.534;2022-11-06T00:48:49;10.10;99.90
13944;DHT22;7044;53.286;8.534;2022-11-06T00:51:18;10.00;99.90
13944;DHT22;7044;53.286;8.534;2022-11-06T00:53:45;10.10;99.90
13944;DHT22;7044;53.286;8.534;2022-11-06T00:56:14;10.10;99.90
13944;DHT22;7044;53.286;8.534;2022-11-06T00:58:42;10.10;99.90
13944;DHT22;7044;53.286;8.534;2022-11-06T01:01:10;10.10;99.90
13944;DHT22;7044;53.286;8.534;2022-11-06T01:03:38;10.10;99.90
13944;DHT22;7044;53.286;8.534;2022-11-06T01:06:07;10.10;99.90
13944;DHT22;7044;53.286;8.534;2022-11-06T01:08:35;10.10;99.90
13944;DHT22;7044;53.286;8.534;2022-11-06T01:11:07;10.10;99.90
13944;DHT22;7044;53.286;8.534;2022-11-06T01:13:34;10.10;99.90
13944;DHT22;7044;53.286;8.534;2022-11-06T01:16:04;10.10;99.90
13944;DHT22;7044;53.286;8.534;2022-11-06T01:18:31;10.20;99.90
13944;DHT22;7044;53.286;8.534;2022-11-06T01:20:58;10.20;99.90
13944;DHT22;7044;53.286;8.534;2022-11-06T01:23:25;10.20;99.90
13944;DHT22;7044;53.286;8.534;2022-11-06T01:25:57;10.20;99.90
13944;DHT22;7044;53.286;8.534;2022-11-06T01:28:25;10.20;99.90
13944;DHT22;7044;53.286;8.534;2022-11-06T01:30:52;10.20;99.90
13944;DHT22;7044;53.286;8.534;2022-11-06T01:33:20;10.20;99.90
13944;DHT22;7044;53.286;8.534;2022-11-06T01:35:48;10.20;99.90
13944;DHT22;7044;53.286;8.534;2022-11-06T01:38:16;10.20;99.90
13944;DHT22;7044;53.286;8.534;2022-11-06T01:40:45;10.30;99.90
13944;DHT22;7044;53.286;8.534;2022-11-06T01:43:17;10.20;99.90
13944;DHT22;7044;53.286;8.534;2022-11-06T01:45:47;10.30;99.90
13944;DHT22;7044;53.286;8.534;2022-11-06T01:48:15;10.30;99.90
13944;DHT22;7044;53.286;8.534;2022-11-06T01:50:45;10.30;99.90
13944;DHT22;7044;53.286;8.534;2022-11-06T01:53:13;10.30;99.90
13944;DHT22;7044;53.286;8.534;2022-11-06T01:55:42;10.30;99.90
13944;DHT22;7044;53.286;8.534;2022-11-06T01:58:16;10.30;99.90
13944;DHT22;7044;53.286;8.534;2022-11-06T02:00:44;10.30;99.90
13944;DHT22;7044;53.286;8.534;2022-11-06T02:03:12;10.30;99.90
13944;DHT22;7044;53.286;8.534;2022-11-06T02:05:39;10.30;99.90
13944;DHT22;7044;53.286;8.534;2022-11-06T02:08:09;10.30;99.90
13944;DHT22;7044;53.286;8.534;2022-11-06T02:10:37;10.30;99.90
13944;DHT22;7044;53.286;8.534;2022-11-06T02:13:17;10.30;99.90
13944;DHT22;7044;53.286;8.534;2022-11-06T02:15:49;10.30;99.90
13944;DHT22;7044;53.286;8.534;2022-11-06T02:18:28;10.30;99.90
13944;DHT22;7044;53.286;8.534;2022-11-06T02:21:23;10.30;99.90
13944;DHT22;7044;53.286;8.534;2022-11-06T02:24:18;10.30;99.90
13944;DHT22;7044;53.286;8.534;2022-11-06T02:27:07;10.30;99.90
13944;DHT22;7044;53.286;8.534;2022-11-06T02:29:41;10.30;99.90
13944;DHT22;7044;53.286;8.534;2022-11-06T02:32:14;10.30;99.90
13944;DHT22;7044;53.286;8.534;2022-11-06T02:34:45;10.30;99.90
13944;DHT22;7044;53.286;8.534;2022-11-06T02:37:17;10.30;99.90
13944;DHT22;7044;53.286;8.534;2022-11-06T02:39:46;10.30;99.90
13944;DHT22;7044;53.286;8.534;2022-11-06T02:42:17;10.30;99.90
13944;DHT22;7044;53.286;8.534;2022-11-06T02:44:47;10.30;99.90
13944;DHT22;7044;53.286;8.534;2022-11-06T02:47:15;10.30;99.90
13944;DHT22;7044;53.286;8.534;2022-11-06T02:49:47;10.30;99.90
13944;DHT22;7044;53.286;8.534;2022-11-06T02:52:20;10.30;99.90
13944;DHT22;7044;53.286;8.534;2022-11-06T02:54:53;10.30;99.90
13944;DHT22;7044;53.286;8.534;2022-11-06T02:57:24;10.30;99.90
13944;DHT22;7044;53.286;8.534;2022-11-06T03:00:00;10.30;99.90
13944;DHT22;7044;53.286;8.534;2022-11-06T03:02:31;10.30;99.90
13944;DHT22;7044;53.286;8.534;2022-11-06T03:05:05;10.30;99.90
13944;DHT22;7044;53.286;8.534;2022-11-06T03:07:36;10.30;99.90
13944;DHT22;7044;53.286;8.534;2022-11-06T03:10:06;10.30;99.90
13944;DHT22;7044;53.286;8.534;2022-11-06T03:12:42;10.30;99.90
13944;DHT22;7044;53.286;8.534;2022-11-06T03:15:16;10.30;99.90
13944;DHT22;7044;53.286;8.534;2022-11-06T03:17:49;10.30;99.90
13944;DHT22;7044;53.286;8.534;2022-11-06T03:20:21;10.30;99.90
13944;DHT22;7044;53.286;8.534;2022-11-06T03:22:56;10.30;99.90
13944;DHT22;7044;53.286;8.534;2022-11-06T03:25:27;10.30;99.90
13944;DHT22;7044;53.286;8.534;2022-11-06T03:28:02;10.30;99.90
13944;DHT22;7044;53.286;8.534;2022-11-06T03:30:33;10.30;99.90
13944;DHT22;7044;53.286;8.534;2022-11-06T03:33:06;10.30;99.90
13944;DHT22;7044;53.286;8.534;2022-11-06T03:35:41;10.30;99.90
13944;DHT22;7044;53.286;8.534;2022-11-06T03:38:12;10.30;99.90
13944;DHT22;7044;53.286;8.534;2022-11-06T03:40:44;10.30;99.90
13944;DHT22;7044;53.286;8.534;2022-11-06T03:43:15;10.30;99.90
13944;DHT22;7044;53.286;8.534;2022-11-06T03:45:43;10.30;99.90
13944;DHT22;7044;53.286;8.534;2022-11-06T03:48:15;10.30;99.90
13944;DHT22;7044;53.286;8.534;2022-11-06T03:50:49;10.20;99.90
13944;DHT22;7044;53.286;8.534;2022-11-06T03:53:20;10.30;99.90
13944;DHT22;7044;53.286;8.534;2022-11-06T03:55:52;10.20;99.90
13944;DHT22;7044;53.286;8.534;2022-11-06T03:58:23;10.20;99.90
13944;DHT22;7044;53.286;8.534;2022-11-06T04:00:53;10.20;99.90
13944;DHT22;7044;53.286;8.534;2022-11-06T04:03:23;10.10;99.90
13944;DHT22;7044;53.286;8.534;2022-11-06T04:05:55;10.20;99.90
13944;DHT22;7044;53.286;8.534;2022-11-06T04:08:26;10.10;99.90
13944;DHT22;7044;53.286;8.534;2022-11-06T04:11:12;10.20;99.90
13944;DHT22;7044;53.286;8.534;2022-11-06T04:14:01;10.20;99.90
13944;DHT22;7044;53.286;8.534;2022-11-06T04:16:32;10.20;99.90
13944;DHT22;7044;53.286;8.534;2022-11-06T04:19:00;10.20;99.90
13944;DHT22;7044;53.286;8.534;2022-11-06T04:21:41;10.10;99.90
13944;DHT22;7044;53.286;8.534;2022-11-06T04:24:22;10.20;99.90
13944;DHT22;7044;53.286;8.534;2022-11-06T04:27:19;10.10;99.90
13944;DHT22;7044;53.286;8.534;2022-11-06T04:30:01;10.10;99.90
13944;DHT22;7044;53.286;8.534;2022-11-06T04:32:36;10.10;99.90
13944;DHT22;7044;53.286;8.534;2022-11-06T04:35:09;10.10;99.90
13944;DHT22;7044;53.286;8.534;2022-11-06T04:37:42;10.10;99.90
13944;DHT22;7044;53.286;8.534;2022-11-06T04:40:17;10.10;99.90
13944;DHT22;7044;53.286;8.534;2022-11-06T04:42:52;10.10;99.90
13944;DHT22;7044;53.286;8.534;2022-11-06T04:45:24;10.10;99.90
13944;DHT22;7044;53.286;8.534;2022-11-06T04:47:53;10.10;99.90
13944;DHT22;7044;53.286;8.534;2022-11-06T04:50:22;10.10;99.90
13944;DHT22;7044;53.286;8.534;2022-11-06T04:52:50;10.00;99.90
13944;DHT22;7044;53.286;8.534;2022-11-06T04:55:17;10.00;99.90
13944;DHT22;7044;53.286;8.534;2022-11-06T04:57:46;10.00;99.90
13944;DHT22;7044;53.286;8.534;2022-11-06T05:00:14;10.10;99.90
13944;DHT22;7044;53.286;8.534;2022-11-06T05:02:43;10.00;99.90
13944;DHT22;7044;53.286;8.534;2022-11-06T05:05:10;10.00;99.90
13944;DHT22;7044;53.286;8.534;2022-11-06T05:07:37;10.00;99.90
13944;DHT22;7044;53.286;8.534;2022-11-06T05:10:04;10.00;99.90
13944;DHT22;7044;53.286;8.534;2022-11-06T05:12:31;10.00;99.90
13944;DHT22;7044;53.286;8.534;2022-11-06T05:14:58;10.00;99.90
13944;DHT22;7044;53.286;8.534;2022-11-06T05:17:25;10.00;99.90
13944;DHT22;7044;53.286;8.534;2022-11-06T05:19:53;9.90;99.90
13944;DHT22;7044;53.286;8.534;2022-11-06T05:22:20;9.90;99.90
13944;DHT22;7044;53.286;8.534;2022-11-06T05:25:05;9.90;99.90
13944;DHT22;7044;53.286;8.534;2022-11-06T05:27:32;9.90;99.90
13944;DHT22;7044;53.286;8.534;2022-11-06T05:29:58;9.90;99.90
13944;DHT22;7044;53.286;8.534;2022-11-06T05:32:25;9.90;99.90
13944;DHT22;7044;53.286;8.534;2022-11-06T05:34:53;10.00;99.90
13944;DHT22;7044;53.286;8.534;2022-11-06T05:37:20;9.90;99.90
13944;DHT22;7044;53.286;8.534;2022-11-06T05:39:47;10.00;99.90
13944;DHT22;7044;53.286;8.534;2022-11-06T05:42:14;9.90;99.90
13944;DHT22;7044;53.286;8.534;2022-11-06T05:44:41;9.90;99.90
13944;DHT22;7044;53.286;8.534;2022-11-06T05:47:07;9.90;99.90
13944;DHT22;7044;53.286;8.534;2022-11-06T05:49:34;9.90;99.90
13944;DHT22;7044;53.286;8.534;2022-11-06T05:52:03;9.90;99.90
13944;DHT22;7044;53.286;8.534;2022-11-06T05:54:30;9.90;99.90
13944;DHT22;7044;53.286;8.534;2022-11-06T05:56:57;9.90;99.90
13944;DHT22;7044;53.286;8.534;2022-11-06T05:59:23;9.90;99.90
13944;DHT22;7044;53.286;8.534;2022-11-06T06:01:50;9.90;99.90
13944;DHT22;7044;53.286;8.534;2022-11-06T06:04:17;9.80;99.90
13944;DHT22;7044;53.286;8.534;2022-11-06T06:06:44;9.80;99.90
13944;DHT22;7044;53.286;8.534;2022-11-06T06:09:12;9.90;99.90
13944;DHT22;7044;53.286;8.534;2022-11-06T06:11:39;9.90;99.90
13944;DHT22;7044;53.286;8.534;2022-11-06T06:14:06;9.90;99.90
13944;DHT22;7044;53.286;8.534;2022-11-06T06:16:33;9.90;99.90
13944;DHT22;7044;53.286;8.534;2022-11-06T06:19:00;9.90;99.90
13944;DHT22;7044;53.286;8.534;2022-11-06T06:21:26;9.90;99.90
13944;DHT22;7044;53.286;8.534;2022-11-06T06:23:53;9.90;99.90
13944;DHT22;7044;53.286;8.534;2022-11-06T06:26:21;9.80;99.90
13944;DHT22;7044;53.286;8.534;2022-11-06T06:28:48;9.90;99.90
13944;DHT22;7044;53.286;8.534;2022-11-06T06:31:15;9.80;99.90
13944;DHT22;7044;53.286;8.534;2022-11-06T06:33:42;9.80;99.90
13944;DHT22;7044;53.286;8.534;2022-11-06T06:36:09;9.90;99.90
13944;DHT22;7044;53.286;8.534;2022-11-06T06:38:36;9.80;99.90
13944;DHT22;7044;53.286;8.534;2022-11-06T06:41:04;9.80;99.90
13944;DHT22;7044;53.286;8.534;2022-11-06T06:43:33;9.80;99.90
13944;DHT22;7044;53.286;8.534;2022-11-06T06:46:02;9.80;99.90
13944;DHT22;7044;53.286;8.534;2022-11-06T06:48:30;9.80;99.90
13944;DHT22;7044;53.286;8.534;2022-11-06T06:50:57;9.70;99.90
13944;DHT22;7044;53.286;8.534;2022-11-06T06:53:25;9.80;99.90
13944;DHT22;7044;53.286;8.534;2022-11-06T06:55:52;9.80;99.90
13944;DHT22;7044;53.286;8.534;2022-11-06T06:58:19;9.90;99.90
13944;DHT22;7044;53.286;8.534;2022-11-06T07:00:47;9.90;99.90
13944;DHT22;7044;53.286;8.534;2022-11-06T07:03:14;9.90;99.90
13944;DHT22;7044;53.286;8.534;2022-11-06T07:05:42;9.90;99.90
13944;DHT22;7044;53.286;8.534;2022-11-06T07:08:09;9.90;99.90
13944;DHT22;7044;53.286;8.534;2022-11-06T07:10:36;9.90;99.90
13944;DHT22;7044;53.286;8.534;2022-11-06T07:13:04;9.90;99.90
13944;DHT22;7044;53.286;8.534;2022-11-06T07:15:31;9.90;99.90
13944;DHT22;7044;53.286;8.534;2022-11-06T07:18:02;9.80;99.90
13944;DHT22;7044;53.286;8.534;2022-11-06T07:20:29;10.00;99.90
13944;DHT22;7044;53.286;8.534;2022-11-06T07:22:56;9.90;99.90
13944;DHT22;7044;53.286;8.534;2022-11-06T07:25:23;9.90;99.90
13944;DHT22;7044;53.286;8.534;2022-11-06T07:27:50;10.00;99.90
13944;DHT22;7044;53.286;8.534;2022-11-06T07:30:17;10.00;99.90
13944;DHT22;7044;53.286;8.534;2022-11-06T07:32:43;10.00;99.90
13944;DHT22;7044;53.286;8.534;2022-11-06T07:35:12;10.00;99.90
13944;DHT22;7044;53.286;8.534;2022-11-06T07:37:38;10.00;99.90
13944;DHT22;7044;53.286;8.534;2022-11-06T07:40:07;10.00;99.90
13944;DHT22;7044;53.286;8.534;2022-11-06T07:42:34;10.00;99.90
13944;DHT22;7044;53.286;8.534;2022-11-06T07:45:01;10.00;99.90
13944;DHT22;7044;53.286;8.534;2022-11-06T07:47:29;10.00;99.90
13944;DHT22;7044;53.286;8.534;2022-11-06T07:49:56;10.10;99.90
13944;DHT22;7044;53.286;8.534;2022-11-06T07:52:24;10.10;99.90
13944;DHT22;7044;53.286;8.534;2022-11-06T07:54:51;10.10;99.90
13944;DHT22;7044;53.286;8.534;2022-11-06T07:57:18;10.20;99.90
13944;DHT22;7044;53.286;8.534;2022-11-06T07:59:45;10.20;99.90
13944;DHT22;7044;53.286;8.534;2022-11-06T08:02:12;10.30;99.90
13944;DHT22;7044;53.286;8.534;2022-11-06T08:04:40;10.40;99.90
13944;DHT22;7044;53.286;8.534;2022-11-06T08:07:07;10.30;99.90
13944;DHT22;7044;53.286;8.534;2022-11-06T08:09:35;10.40;99.90
13944;DHT22;7044;53.286;8.534;2022-11-06T08:12:02;10.40;99.90
13944;DHT22;7044;53.286;8.534;2022-11-06T08:14:29;10.40;99.90
13944;DHT22;7044;53.286;8.534;2022-11-06T08:16:56;10.40;99.90
13944;DHT22;7044;53.286;8.534;2022-11-06T08:19:23;10.50;99.90
13944;DHT22;7044;53.286;8.534;2022-11-06T08:21:50;10.50;99.90
13944;DHT22;7044;53.286;8.534;2022-11-06T08:24:17;10.50;99.90
13944;DHT22;7044;53.286;8.534;2022-11-06T08:26:45;10.50;99.90
13944;DHT22;7044;53.286;8.534;2022-11-06T08:29:12;10.50;99.90
13944;DHT22;7044;53.286;8.534;2022-11-06T08:31:39;10.60;99.90
13944;DHT22;7044;53.286;8.534;2022-11-06T08:34:06;10.60;99.90
13944;DHT22;7044;53.286;8.534;2022-11-06T08:36:35;10.70;99.90
13944;DHT22;7044;53.286;8.534;2022-11-06T08:39:03;10.70;99.90
13944;DHT22;7044;53.286;8.534;2022-11-06T08:41:30;10.70;99.90
13944;DHT22;7044;53.286;8.534;2022-11-06T08:43:58;10.80;99.90
13944;DHT22;7044;53.286;8.534;2022-11-06T08:46:25;10.80;99.90
13944;DHT22;7044;53.286;8.534;2022-11-06T08:48:52;10.90;99.90
13944;DHT22;7044;53.286;8.534;2022-11-06T08:51:18;10.90;99.90
13944;DHT22;7044;53.286;8.534;2022-11-06T08:53:45;11.00;99.90
13944;DHT22;7044;53.286;8.534;2022-11-06T08:56:12;11.00;99.90
13944;DHT22;7044;53.286;8.534;2022-11-06T08:58:39;10.90;99.90
13944;DHT22;7044;53.286;8.534;2022-11-06T09:01:08;11.00;99.90
13944;DHT22;7044;53.286;8.534;2022-11-06T09:03:34;11.00;99.90
13944;DHT22;7044;53.286;8.534;2022-11-06T09:06:04;11.00;99.90
13944;DHT22;7044;53.286;8.534;2022-11-06T09:08:30;11.00;99.90
13944;DHT22;7044;53.286;8.534;2022-11-06T09:10:57;11.10;99.90
13944;DHT22;7044;53.286;8.534;2022-11-06T09:13:24;11.10;99.90
13944;DHT22;7044;53.286;8.534;2022-11-06T09:15:51;11.10;99.90
13944;DHT22;7044;53.286;8.534;2022-11-06T09:18:20;11.20;99.90
13944;DHT22;7044;53.286;8.534;2022-11-06T09:20:47;11.20;99.90
13944;DHT22;7044;53.286;8.534;2022-11-06T09:23:13;11.30;99.90
13944;DHT22;7044;53.286;8.534;2022-11-06T09:25:40;11.30;99.90
13944;DHT22;7044;53.286;8.534;2022-11-06T09:28:07;11.30;99.90
13944;DHT22;7044;53.286;8.534;2022-11-06T09:30:34;11.30;99.90
13944;DHT22;7044;53.286;8.534;2022-11-06T09:33:01;11.30;99.90
13944;DHT22;7044;53.286;8.534;2022-11-06T09:35:32;11.30;99.90
13944;DHT22;7044;53.286;8.534;2022-11-06T09:38:00;11.30;99.90
13944;DHT22;7044;53.286;8.534;2022-11-06T09:40:30;11.30;99.90
13944;DHT22;7044;53.286;8.534;2022-11-06T09:43:21;11.30;99.90
13944;DHT22;7044;53.286;8.534;2022-11-06T09:45:50;11.30;99.90
13944;DHT22;7044;53.286;8.534;2022-11-06T09:48:23;11.30;99.90
13944;DHT22;7044;53.286;8.534;2022-11-06T09:50:55;11.30;99.90
13944;DHT22;7044;53.286;8.534;2022-11-06T09:53:28;11.30;99.90
13944;DHT22;7044;53.286;8.534;2022-11-06T09:55:58;11.30;99.90
13944;DHT22;7044;53.286;8.534;2022-11-06T09:58:30;11.40;99.90
13944;DHT22;7044;53.286;8.534;2022-11-06T10:01:08;11.30;99.90
13944;DHT22;7044;53.286;8.534;2022-11-06T10:03:40;11.40;99.90
13944;DHT22;7044;53.286;8.534;2022-11-06T10:06:11;11.40;99.90
13944;DHT22;7044;53.286;8.534;2022-11-06T10:08:40;11.40;99.90
13944;DHT22;7044;53.286;8.534;2022-11-06T10:11:33;11.50;99.90
13944;DHT22;7044;53.286;8.534;2022-11-06T10:14:11;11.50;99.90
13944;DHT22;7044;53.286;8.534;2022-11-06T10:16:48;11.60;99.90
13944;DHT22;7044;53.286;8.534;2022-11-06T10:19:22;11.60;99.90
13944;DHT22;7044;53.286;8.534;2022-11-06T10:21:58;11.70;99.90
13944;DHT22;7044;53.286;8.534;2022-11-06T10:24:33;11.80;99.90
13944;DHT22;7044;53.286;8.534;2022-11-06T10:27:08;11.80;99.90
13944;DHT22;7044;53.286;8.534;2022-11-06T10:29:58;11.80;99.90
13944;DHT22;7044;53.286;8.534;2022-11-06T10:32:42;11.80;99.90
13944;DHT22;7044;53.286;8.534;2022-11-06T10:35:16;11.90;99.90
13944;DHT22;7044;53.286;8.534;2022-11-06T10:37:49;11.90;99.90
13944;DHT22;7044;53.286;8.534;2022-11-06T10:40:22;11.90;99.90
13944;DHT22;7044;53.286;8.534;2022-11-06T10:42:58;11.90;99.90
13944;DHT22;7044;53.286;8.534;2022-11-06T10:45:27;11.90;99.90
13944;DHT22;7044;53.286;8.534;2022-11-06T10:47:58;11.90;99.90
13944;DHT22;7044;53.286;8.534;2022-11-06T10:50:37;11.90;99.90
13944;DHT22;7044;53.286;8.534;2022-11-06T10:53:15;11.90;99.90
13944;DHT22;7044;53.286;8.534;2022-11-06T10:56:20;11.90;99.90
13944;DHT22;7044;53.286;8.534;2022-11-06T10:58:51;11.90;99.90
13944;DHT22;7044;53.286;8.534;2022-11-06T11:01:18;11.30;99.90
13944;DHT22;7044;53.286;8.534;2022-11-06T11:03:46;11.90;99.90
13944;DHT22;7044;53.286;8.534;2022-11-06T11:06:14;10.90;99.90
13944;DHT22;7044;53.286;8.534;2022-11-06T11:08:43;12.00;99.90
13944;DHT22;7044;53.286;8.534;2022-11-06T11:11:22;12.10;99.90
13944;DHT22;7044;53.286;8.534;2022-11-06T11:13:51;12.20;99.90
13944;DHT22;7044;53.286;8.534;2022-11-06T11:16:38;12.20;99.90
13944;DHT22;7044;53.286;8.534;2022-11-06T11:19:33;12.30;99.90
13944;DHT22;7044;53.286;8.534;2022-11-06T11:22:02;12.30;99.90
13944;DHT22;7044;53.286;8.534;2022-11-06T11:24:31;12.40;99.90
13944;DHT22;7044;53.286;8.534;2022-11-06T11:27:00;12.50;99.90
13944;DHT22;7044;53.286;8.534;2022-11-06T11:29:30;12.50;99.90
13944;DHT22;7044;53.286;8.534;2022-11-06T11:32:00;12.50;99.90
13944;DHT22;7044;53.286;8.534;2022-11-06T11:34:29;12.50;99.90
13944;DHT22;7044;53.286;8.534;2022-11-06T11:36:58;12.50;99.90
13944;DHT22;7044;53.286;8.534;2022-11-06T11:39:31;12.50;99.90
13944;DHT22;7044;53.286;8.534;2022-11-06T11:42:31;12.60;99.90
13944;DHT22;7044;53.286;8.534;2022-11-06T11:45:17;12.50;99.90
13944;DHT22;7044;53.286;8.534;2022-11-06T11:47:46;12.60;99.90
13944;DHT22;7044;53.286;8.534;2022-11-06T11:50:34;12.60;99.90
13944;DHT22;7044;53.286;8.534;2022-11-06T11:53:05;12.60;99.90
13944;DHT22;7044;53.286;8.534;2022-11-06T11:55:40;12.60;99.90
13944;DHT22;7044;53.286;8.534;2022-11-06T11:58:18;12.60;99.90
13944;DHT22;7044;53.286;8.534;2022-11-06T12:00:54;12.60;99.90
13944;DHT22;7044;53.286;8.534;2022-11-06T12:03:24;12.60;99.90
13944;DHT22;7044;53.286;8.534;2022-11-06T12:05:53;12.60;99.90
13944;DHT22;7044;53.286;8.534;2022-11-06T12:08:29;12.60;99.90
13944;DHT22;7044;53.286;8.534;2022-11-06T12:11:02;12.60;99.90
13944;DHT22;7044;53.286;8.534;2022-11-06T12:13:29;12.60;99.90
13944;DHT22;7044;53.286;8.534;2022-11-06T12:15:57;12.60;99.90
13944;DHT22;7044;53.286;8.534;2022-11-06T12:18:29;12.70;99.90
13944;DHT22;7044;53.286;8.534;2022-11-06T12:21:00;12.70;99.90
13944;DHT22;7044;53.286;8.534;2022-11-06T12:23:39;12.70;99.90
13944;DHT22;7044;53.286;8.534;2022-11-06T12:26:14;12.70;99.90
13944;DHT22;7044;53.286;8.534;2022-11-06T12:28:47;12.70;99.90
13944;DHT22;7044;53.286;8.534;2022-11-06T12:31:18;12.70;99.90
13944;DHT22;7044;53.286;8.534;2022-11-06T12:33:46;12.70;99.90
13944;DHT22;7044;53.286;8.534;2022-11-06T12:36:17;12.70;99.90
13944;DHT22;7044;53.286;8.534;2022-11-06T12:38:49;12.70;99.90
13944;DHT22;7044;53.286;8.534;2022-11-06T12:41:23;12.60;99.90
13944;DHT22;7044;53.286;8.534;2022-11-06T12:43:52;12.60;99.90
13944;DHT22;7044;53.286;8.534;2022-11-06T12:46:38;12.60;99.90
13944;DHT22;7044;53.286;8.534;2022-11-06T12:49:21;12.50;99.90
13944;DHT22;7044;53.286;8.534;2022-11-06T12:51:59;12.50;99.90
13944;DHT22;7044;53.286;8.534;2022-11-06T12:54:41;12.50;99.90
13944;DHT22;7044;53.286;8.534;2022-11-06T12:57:20;12.50;99.90
13944;DHT22;7044;53.286;8.534;2022-11-06T12:59:59;12.40;99.90
13944;DHT22;7044;53.286;8.534;2022-11-06T13:02:36;12.40;99.90
13944;DHT22;7044;53.286;8.534;2022-11-06T13:05:13;12.40;99.90
13944;DHT22;7044;53.286;8.534;2022-11-06T13:07:55;12.50;99.90
13944;DHT22;7044;53.286;8.534;2022-11-06T13:10:39;12.40;99.90
13944;DHT22;7044;53.286;8.534;2022-11-06T13:13:30;12.40;99.90
13944;DHT22;7044;53.286;8.534;2022-11-06T13:16:08;12.40;99.90
13944;DHT22;7044;53.286;8.534;2022-11-06T13:18:41;12.40;99.90
13944;DHT22;7044;53.286;8.534;2022-11-06T13:21:16;12.40;99.90
13944;DHT22;7044;53.286;8.534;2022-11-06T13:23:48;12.40;99.90
13944;DHT22;7044;53.286;8.534;2022-11-06T13:26:21;12.40;99.90
13944;DHT22;7044;53.286;8.534;2022-11-06T13:28:54;12.40;99.90
13944;DHT22;7044;53.286;8.534;2022-11-06T13:31:27;12.40;99.90
13944;DHT22;7044;53.286;8.534;2022-11-06T13:33:58;12.40;99.90
13944;DHT22;7044;53.286;8.534;2022-11-06T13:36:26;12.40;99.90
13944;DHT22;7044;53.286;8.534;2022-11-06T13:38:57;12.40;99.90
13944;DHT22;7044;53.286;8.534;2022-11-06T13:41:26;12.40;99.90
13944;DHT22;7044;53.286;8.534;2022-11-06T13:43:58;12.40;99.90
13944;DHT22;7044;53.286;8.534;2022-11-06T13:46:31;12.40;99.90
13944;DHT22;7044;53.286;8.534;2022-11-06T13:49:09;12.40;99.90
13944;DHT22;7044;53.286;8.534;2022-11-06T13:51:45;12.40;99.90
13944;DHT22;7044;53.286;8.534;2022-11-06T13:54:22;12.40;99.90
13944;DHT22;7044;53.286;8.534;2022-11-06T13:57:22;12.40;99.90
13944;DHT22;7044;53.286;8.534;2022-11-06T14:00:06;12.40;99.90
13944;DHT22;7044;53.286;8.534;2022-11-06T14:02:51;12.40;99.90
13944;DHT22;7044;53.286;8.534;2022-11-06T14:08:28;12.40;99.90
13944;DHT22;7044;53.286;8.534;2022-11-06T14:10:58;12.40;99.90
13944;DHT22;7044;53.286;8.534;2022-11-06T14:13:28;12.40;99.90
13944;DHT22;7044;53.286;8.534;2022-11-06T14:16:03;12.40;99.90
13944;DHT22;7044;53.286;8.534;2022-11-06T14:18:32;12.40;99.90
13944;DHT22;7044;53.286;8.534;2022-11-06T14:21:40;12.40;99.90
13944;DHT22;7044;53.286;8.534;2022-11-06T14:24:15;12.30;99.90
13944;DHT22;7044;53.286;8.534;2022-11-06T14:26:43;12.20;99.90
13944;DHT22;7044;53.286;8.534;2022-11-06T14:29:42;12.20;99.90
13944;DHT22;7044;53.286;8.534;2022-11-06T14:32:48;12.20;99.90
13944;DHT22;7044;53.286;8.534;2022-11-06T14:35:50;12.20;99.90
13944;DHT22;7044;53.286;8.534;2022-11-06T14:44:24;12.10;99.90
13944;DHT22;7044;53.286;8.534;2022-11-06T14:46:54;12.10;99.90
13944;DHT22;7044;53.286;8.534;2022-11-06T14:49:33;12.30;99.90
13944;DHT22;7044;53.286;8.534;2022-11-06T14:52:03;12.00;99.90
13944;DHT22;7044;53.286;8.534;2022-11-06T14:54:31;12.00;99.90
13944;DHT22;7044;53.286;8.534;2022-11-06T14:56:59;12.00;99.90
13944;DHT22;7044;53.286;8.534;2022-11-06T14:59:31;11.90;99.90
13944;DHT22;7044;53.286;8.534;2022-11-06T15:02:03;11.90;99.90
13944;DHT22;7044;53.286;8.534;2022-11-06T15:04:43;11.90;99.90
13944;DHT22;7044;53.286;8.534;2022-11-06T15:07:26;11.90;99.90
13944;DHT22;7044;53.286;8.534;2022-11-06T15:09:57;11.80;99.90
13944;DHT22;7044;53.286;8.534;2022-11-06T15:15:25;11.80;99.90
13944;DHT22;7044;53.286;8.534;2022-11-06T15:17:52;11.80;99.90
13944;DHT22;7044;53.286;8.534;2022-11-06T15:20:27;11.80;99.90
13944;DHT22;7044;53.286;8.534;2022-11-06T15:23:14;11.70;99.90
13944;DHT22;7044;53.286;8.534;2022-11-06T15:25:50;11.70;99.90
13944;DHT22;7044;53.286;8.534;2022-11-06T15:28:23;11.70;99.90
13944;DHT22;7044;53.286;8.534;2022-11-06T15:30:55;11.70;99.90
13944;DHT22;7044;53.286;8.534;2022-11-06T15:33:27;11.60;99.90
13944;DHT22;7044;53.286;8.534;2022-11-06T15:36:02;11.70;99.90
13944;DHT22;7044;53.286;8.534;2022-11-06T15:38:36;11.60;99.90
13944;DHT22;7044;53.286;8.534;2022-11-06T15:41:05;11.60;99.90
13944;DHT22;7044;53.286;8.534;2022-11-06T15:43:34;11.60;99.90
13944;DHT22;7044;53.286;8.534;2022-11-06T15:46:04;11.60;99.90
13944;DHT22;7044;53.286;8.534;2022-11-06T15:48:31;11.60;99.90
13944;DHT22;7044;53.286;8.534;2022-11-06T15:51:00;11.60;99.90
13944;DHT22;7044;53.286;8.534;2022-11-06T15:53:28;11.50;99.90
13944;DHT22;7044;53.286;8.534;2022-11-06T15:55:58;11.50;99.90
13944;DHT22;7044;53.286;8.534;2022-11-06T15:58:29;11.50;99.90
13944;DHT22;7044;53.286;8.534;2022-11-06T16:00:57;11.50;99.90
13944;DHT22;7044;53.286;8.534;2022-11-06T16:03:26;11.50;99.90
13944;DHT22;7044;53.286;8.534;2022-11-06T16:05:56;11.50;99.90
13944;DHT22;7044;53.286;8.534;2022-11-06T16:08:27;11.50;99.90
13944;DHT22;7044;53.286;8.534;2022-11-06T16:10:55;11.50;99.90
13944;DHT22;7044;53.286;8.534;2022-11-06T16:13:24;11.50;99.90
13944;DHT22;7044;53.286;8.534;2022-11-06T16:15:52;11.50;99.90
13944;DHT22;7044;53.286;8.534;2022-11-06T16:18:23;11.50;99.90
13944;DHT22;7044;53.286;8.534;2022-11-06T16:20:54;11.40;99.90
13944;DHT22;7044;53.286;8.534;2022-11-06T16:23:25;11.40;99.90
13944;DHT22;7044;53.286;8.534;2022-11-06T16:25:58;11.30;99.90
13944;DHT22;7044;53.286;8.534;2022-11-06T16:28:26;11.30;99.90